Time;durP1;ratioP1;P1;durP2;ratioP2;P2;SDS_P1;SDS_P2;PMS_P1;PMS_P2;Temp;Humidity;BMP_temperature;BMP_pressure;BME280_temperature;BME280_humidity;BME280_pressure;Samples;Min_cycle;Max_cycle;Signal;HPM_P1;HPM_P2
2023/08/16 00:01:28;;;;;;;5.65;1.88;;;;;;;;;;5049660;28;20053;-64
2023/08/16 00:03:55;;;;;;;3.78;1.50;;;;;;;;;;5039503;28;20080;-64
2023/08/16 00:06:21;;;;;;;4.15;1.60;;;;;;;;;;5037608;28;20095;-63
2023/08/16 00:08:48;;;;;;;4.78;1.67;;;;;;;;;;5067290;28;20134;-64
2023/08/16 00:11:16;;;;;;;8.60;1.95;;;;;;;;;;5049234;28;20064;-63
2023/08/16 00:13:43;;;;;;;7.90;1.65;;;;;;;;;;5040966;28;20041;-64
2023/08/16 00:16:10;;;;;;;5.10;1.63;;;;;;;;;;5028560;28;20049;-62
2023/08/16 00:18:36;;;;;;;6.00;1.75;;;;;;;;;;5030367;28;20061;-64
2023/08/16 00:21:03;;;;;;;6.68;2.10;;;;;;;;;;5037402;28;20144;-64
2023/08/16 00:23:30;;;;;;;3.38;1.73;;;;;;;;;;5024663;28;20582;-66
2023/08/16 00:25:57;;;;;;;2.97;1.60;;;;;;;;;;5021279;28;20115;-64
2023/08/16 00:28:25;;;;;;;10.52;2.13;;;;;;;;;;5034779;28;20057;-64
2023/08/16 00:30:53;;;;;;;10.15;2.10;;;;;;;;;;5026369;28;20072;-64
2023/08/16 00:33:20;;;;;;;3.88;1.95;;;;;;;;;;5039807;28;20045;-66
2023/08/16 00:35:47;;;;;;;3.92;1.98;;;;;;;;;;5044025;28;20049;-64
2023/08/16 00:38:14;;;;;;;7.30;2.33;;;;;;;;;;5052968;28;20099;-64
2023/08/16 00:40:41;;;;;;;6.28;2.40;;;;;;;;;;5055617;28;20056;-64
2023/08/16 00:43:07;;;;;;;5.78;2.63;;;;;;;;;;5046670;28;20309;-64
2023/08/16 00:45:36;;;;;;;7.07;2.58;;;;;;;;;;5052362;28;20131;-64
2023/08/16 00:48:03;;;;;;;7.57;2.80;;;;;;;;;;5059241;28;20048;-64
2023/08/16 00:50:30;;;;;;;6.30;2.47;;;;;;;;;;5053398;28;20155;-65
2023/08/16 00:52:57;;;;;;;10.07;2.50;;;;;;;;;;5055939;28;20149;-63
2023/08/16 00:55:32;;;;;;;3.28;1.67;;;;;;;;;;5044898;28;20079;-65
2023/08/16 00:57:58;;;;;;;3.60;1.95;;;;;;;;;;5060233;28;20053;-65
2023/08/16 01:00:25;;;;;;;4.82;2.20;;;;;;;;;;5046495;28;20056;-64
2023/08/16 01:02:53;;;;;;;5.50;2.25;;;;;;;;;;5078985;28;20109;-64
2023/08/16 01:05:21;;;;;;;3.67;1.80;;;;;;;;;;5052122;28;20074;-65
2023/08/16 01:07:48;;;;;;;3.53;1.80;;;;;;;;;;5062972;28;20039;-64
2023/08/16 01:10:25;;;;;;;5.20;1.40;;;;;;;;;;5069344;28;20113;-64
2023/08/16 01:13:05;;;;;;;3.58;1.45;;;;;;;;;;5060180;28;20103;-64
2023/08/16 01:15:39;;;;;;;3.78;1.40;;;;;;;;;;5031126;28;20103;-63
2023/08/16 01:18:09;;;;;;;3.53;1.35;;;;;;;;;;5073865;28;20121;-63
2023/08/16 01:20:44;;;;;;;3.60;1.38;;;;;;;;;;5055513;28;20068;-65
2023/08/16 01:23:20;;;;;;;5.28;1.42;;;;;;;;;;5059425;28;20150;-64
2023/08/16 01:25:51;;;;;;;3.95;1.52;;;;;;;;;;5052548;28;20056;-64
2023/08/16 01:28:27;;;;;;;4.65;1.65;;;;;;;;;;5052745;28;20264;-64
2023/08/16 01:30:59;;;;;;;3.53;1.42;;;;;;;;;;5059584;28;20075;-63
2023/08/16 01:33:25;;;;;;;4.05;1.70;;;;;;;;;;5061438;28;20066;-65
2023/08/16 01:35:52;;;;;;;4.43;1.60;;;;;;;;;;5055629;28;20104;-65
2023/08/16 01:38:19;;;;;;;4.40;1.60;;;;;;;;;;5075826;28;20065;-65
2023/08/16 01:40:56;;;;;;;2.83;1.70;;;;;;;;;;5059977;28;20060;-65
2023/08/16 01:43:31;;;;;;;7.37;1.60;;;;;;;;;;5056804;28;20128;-63
2023/08/16 01:46:00;;;;;;;4.07;1.50;;;;;;;;;;5069181;28;20113;-67
2023/08/16 01:48:28;;;;;;;4.45;1.70;;;;;;;;;;5060716;28;20047;-65
2023/08/16 01:50:55;;;;;;;5.20;1.70;;;;;;;;;;5046953;28;20114;-66
2023/08/16 01:53:22;;;;;;;4.43;2.00;;;;;;;;;;5056597;28;20142;-63
2023/08/16 01:55:49;;;;;;;4.00;1.85;;;;;;;;;;5063997;28;20048;-64
2023/08/16 01:58:16;;;;;;;4.72;1.83;;;;;;;;;;5051120;28;20106;-63
2023/08/16 02:00:46;;;;;;;5.70;1.92;;;;;;;;;;5044081;28;20071;-64
2023/08/16 02:03:13;;;;;;;5.43;1.90;;;;;;;;;;5040499;28;20076;-64
2023/08/16 02:05:41;;;;;;;4.10;1.70;;;;;;;;;;5025479;28;20253;-64
2023/08/16 02:08:10;;;;;;;5.07;1.70;;;;;;;;;;5043926;28;20060;-63
2023/08/16 02:10:36;;;;;;;4.07;1.63;;;;;;;;;;5037989;28;20048;-62
2023/08/16 02:13:06;;;;;;;5.68;1.70;;;;;;;;;;5065104;28;20052;-65
2023/08/16 02:15:33;;;;;;;5.63;1.48;;;;;;;;;;5074913;28;20060;-64
2023/08/16 02:18:02;;;;;;;10.98;2.20;;;;;;;;;;5081618;28;20060;-66
2023/08/16 02:20:28;;;;;;;;;;;;;;;;;;5072619;28;20198;-65
2023/08/16 02:22:55;;;;;;;8.23;1.80;;;;;;;;;;5080229;28;19924;-64
2023/08/16 02:25:21;;;;;;;4.47;1.25;;;;;;;;;;5074890;28;20083;-64
2023/08/16 02:27:48;;;;;;;3.10;1.40;;;;;;;;;;5065765;28;20121;-66
2023/08/16 02:30:15;;;;;;;2.55;1.25;;;;;;;;;;5058463;28;20107;-62
2023/08/16 02:32:42;;;;;;;3.35;1.40;;;;;;;;;;5039883;28;20067;-63
2023/08/16 02:35:10;;;;;;;3.58;1.40;;;;;;;;;;5036235;28;20066;-65
2023/08/16 02:37:36;;;;;;;4.30;1.25;;;;;;;;;;5044785;28;20056;-64
2023/08/16 02:40:04;;;;;;;3.35;1.40;;;;;;;;;;5078928;28;20100;-65
2023/08/16 02:42:30;;;;;;;4.20;1.65;;;;;;;;;;5073382;28;20056;-64
2023/08/16 02:44:57;;;;;;;6.32;1.70;;;;;;;;;;5073146;28;20142;-64
2023/08/16 02:47:24;;;;;;;3.80;1.30;;;;;;;;;;5079510;28;20124;-63
2023/08/16 02:49:50;;;;;;;6.10;1.40;;;;;;;;;;5077361;28;20152;-65
2023/08/16 02:52:18;;;;;;;4.57;1.42;;;;;;;;;;5077046;28;20044;-62
2023/08/16 02:54:45;;;;;;;3.83;1.60;;;;;;;;;;5047531;28;20080;-64
2023/08/16 02:57:13;;;;;;;7.07;1.40;;;;;;;;;;5061762;28;20058;-65
2023/08/16 02:59:41;;;;;;;5.85;1.30;;;;;;;;;;5060473;28;20318;-62
2023/08/16 03:02:08;;;;;;;6.70;1.20;;;;;;;;;;5061148;28;20083;-65
2023/08/16 03:04:39;;;;;;;5.97;1.48;;;;;;;;;;5016795;28;20056;-65
2023/08/16 03:07:07;;;;;;;1.98;1.17;;;;;;;;;;5052566;28;20078;-65
2023/08/16 03:09:35;;;;;;;3.55;1.00;;;;;;;;;;5079185;28;20059;-64
2023/08/16 03:12:02;;;;;;;;;;;;;;;;;;5084852;28;20054;-64
2023/08/16 03:14:29;;;;;;;6.70;1.23;;;;;;;;;;5054868;28;19930;-63
2023/08/16 03:16:55;;;;;;;6.32;1.40;;;;;;;;;;5081624;28;20062;-63
2023/08/16 03:19:22;;;;;;;3.05;1.27;;;;;;;;;;5099419;28;20158;-63
2023/08/16 03:21:49;;;;;;;4.60;1.55;;;;;;;;;;5103659;28;20091;-64
2023/08/16 03:24:16;;;;;;;5.40;1.50;;;;;;;;;;5074873;28;20056;-64
2023/08/16 03:26:44;;;;;;;2.97;1.40;;;;;;;;;;5097390;28;20104;-64
2023/08/16 03:29:10;;;;;;;2.30;1.30;;;;;;;;;;5080695;28;20044;-65
2023/08/16 03:31:38;;;;;;;3.47;1.20;;;;;;;;;;5081850;28;20051;-65
2023/08/16 03:34:05;;;;;;;2.80;1.38;;;;;;;;;;5093065;28;20128;-64
2023/08/16 03:36:31;;;;;;;3.67;1.35;;;;;;;;;;5074329;28;20226;-65
2023/08/16 03:38:58;;;;;;;1.90;1.27;;;;;;;;;;5099158;28;20055;-65
2023/08/16 03:41:25;;;;;;;3.22;1.30;;;;;;;;;;5081715;28;20056;-65
2023/08/16 03:43:53;;;;;;;5.68;1.40;;;;;;;;;;5075458;28;20060;-65
2023/08/16 03:46:20;;;;;;;2.20;1.15;;;;;;;;;;5077633;28;20051;-65
2023/08/16 03:48:46;;;;;;;2.92;1.38;;;;;;;;;;5083539;28;20047;-63
2023/08/16 03:51:13;;;;;;;3.72;1.10;;;;;;;;;;5085148;28;20067;-65
2023/08/16 03:53:40;;;;;;;8.02;1.75;;;;;;;;;;5083843;28;20086;-65
2023/08/16 03:56:06;;;;;;;3.22;1.38;;;;;;;;;;5066933;28;20056;-64
2023/08/16 03:58:33;;;;;;;7.00;2.50;;;;;;;;;;5060534;28;20125;-63
2023/08/16 04:01:01;;;;;;;9.52;1.48;;;;;;;;;;5051727;28;20113;-63
2023/08/16 04:03:28;;;;;;;6.03;1.60;;;;;;;;;;5062304;28;20060;-65
2023/08/16 04:05:55;;;;;;;4.30;1.45;;;;;;;;;;5042776;28;20141;-63
2023/08/16 04:08:21;;;;;;;4.45;1.70;;;;;;;;;;5049902;28;20162;-65
2023/08/16 04:10:48;;;;;;;5.40;1.58;;;;;;;;;;5084965;28;20082;-65
2023/08/16 04:13:15;;;;;;;3.33;1.25;;;;;;;;;;5070962;28;20052;-64
2023/08/16 04:15:42;;;;;;;6.65;1.50;;;;;;;;;;5049807;28;20142;-65
2023/08/16 04:18:11;;;;;;;4.30;1.43;;;;;;;;;;5083516;28;20059;-63
2023/08/16 04:20:37;;;;;;;2.28;1.40;;;;;;;;;;5080164;28;20051;-64
2023/08/16 04:23:04;;;;;;;3.92;1.45;;;;;;;;;;5065172;28;20070;-65
2023/08/16 04:25:31;;;;;;;2.17;1.30;;;;;;;;;;5058878;28;20093;-65
2023/08/16 04:27:59;;;;;;;6.10;1.60;;;;;;;;;;5064972;28;20133;-65
2023/08/16 04:30:26;;;;;;;;;;;;;;;;;;5054035;28;20087;-64
2023/08/16 04:32:53;;;;;;;6.80;1.35;;;;;;;;;;5082014;28;19924;-65
2023/08/16 04:35:21;;;;;;;4.75;1.70;;;;;;;;;;5063848;28;20045;-64
2023/08/16 04:37:47;;;;;;;3.42;1.40;;;;;;;;;;5062502;28;20065;-64
2023/08/16 04:40:14;;;;;;;4.97;1.38;;;;;;;;;;5059460;28;20141;-64
2023/08/16 04:42:41;;;;;;;10.57;4.80;;;;;;;;;;5057672;28;22165;-64
2023/08/16 04:45:08;;;;;;;32.28;14.07;;;;;;;;;;5056195;28;20087;-65
2023/08/16 04:47:35;;;;;;;36.20;19.30;;;;;;;;;;5043620;28;20113;-65
2023/08/16 04:50:06;;;;;;;10.02;4.82;;;;;;;;;;5064478;28;20056;-65
2023/08/16 04:52:35;;;;;;;6.90;2.28;;;;;;;;;;5073117;28;20067;-63
2023/08/16 04:55:02;;;;;;;8.20;1.77;;;;;;;;;;5038017;28;20052;-65
2023/08/16 04:57:29;;;;;;;7.05;1.77;;;;;;;;;;5055398;28;20048;-65
2023/08/16 04:59:55;;;;;;;7.28;2.03;;;;;;;;;;5075369;28;20051;-63
2023/08/16 05:02:22;;;;;;;2.40;1.45;;;;;;;;;;5069547;28;20115;-65
2023/08/16 05:04:49;;;;;;;6.07;1.80;;;;;;;;;;5074144;28;20052;-64
2023/08/16 05:07:16;;;;;;;8.10;1.90;;;;;;;;;;5063460;28;20048;-64
2023/08/16 05:09:44;;;;;;;104.15;46.38;;;;;;;;;;5060770;28;20044;-64
2023/08/16 05:12:13;;;;;;;393.92;215.38;;;;;;;;;;5076334;28;20144;-64
2023/08/16 05:14:40;;;;;;;44.80;21.13;;;;;;;;;;5030371;28;20060;-65
2023/08/16 05:17:06;;;;;;;9.27;3.95;;;;;;;;;;5065907;28;20047;-65
2023/08/16 05:19:33;;;;;;;6.18;2.15;;;;;;;;;;5080270;28;20063;-67
2023/08/16 05:21:59;;;;;;;5.20;1.95;;;;;;;;;;5075805;28;20140;-64
2023/08/16 05:24:26;;;;;;;3.20;1.70;;;;;;;;;;5041007;28;20095;-64
2023/08/16 05:26:54;;;;;;;13.27;2.00;;;;;;;;;;5061565;28;20048;-63
2023/08/16 05:29:21;;;;;;;6.57;1.40;;;;;;;;;;5047320;28;20048;-63
2023/08/16 05:31:48;;;;;;;4.90;1.50;;;;;;;;;;5057716;28;20056;-65
2023/08/16 05:34:16;;;;;;;7.70;1.60;;;;;;;;;;5054599;28;20117;-64
2023/08/16 05:36:49;;;;;;;11.50;4.47;;;;;;;;;;5046734;28;20055;-63
2023/08/16 05:39:16;;;;;;;7.68;2.67;;;;;;;;;;5073913;28;20048;-64
2023/08/16 05:41:43;;;;;;;5.55;1.55;;;;;;;;;;5062469;28;20067;-65
2023/08/16 05:44:14;;;;;;;3.55;1.60;;;;;;;;;;5044005;28;20062;-64
2023/08/16 05:46:41;;;;;;;5.32;1.67;;;;;;;;;;5044570;28;20060;-64
2023/08/16 05:49:07;;;;;;;5.20;1.58;;;;;;;;;;5042185;28;20095;-64
2023/08/16 05:51:34;;;;;;;6.60;1.50;;;;;;;;;;5046734;28;20048;-64
2023/08/16 05:54:02;;;;;;;3.20;1.63;;;;;;;;;;5057326;28;20066;-65
2023/08/16 05:56:28;;;;;;;15.20;5.38;;;;;;;;;;5058156;28;20156;-65
2023/08/16 05:58:55;;;;;;;12.90;5.43;;;;;;;;;;5082753;28;20060;-65
2023/08/16 06:01:26;;;;;;;5.07;1.88;;;;;;;;;;5084762;28;20116;-66
2023/08/16 06:03:53;;;;;;;5.10;1.70;;;;;;;;;;5043443;28;20057;-64
2023/08/16 06:06:19;;;;;;;6.15;1.70;;;;;;;;;;5032856;28;20068;-64
2023/08/16 06:08:46;;;;;;;5.68;1.55;;;;;;;;;;5038174;28;20119;-63
2023/08/16 06:11:13;;;;;;;4.28;1.40;;;;;;;;;;5038777;28;20068;-66
2023/08/16 06:13:40;;;;;;;4.28;1.52;;;;;;;;;;5049551;28;20060;-63
2023/08/16 06:16:07;;;;;;;3.65;1.52;;;;;;;;;;5027976;28;20134;-63
2023/08/16 06:18:35;;;;;;;11.98;4.18;;;;;;;;;;5034283;28;20096;-63
2023/08/16 06:21:01;;;;;;;5.80;2.08;;;;;;;;;;5039060;28;20512;-63
2023/08/16 06:23:28;;;;;;;9.23;3.22;;;;;;;;;;5038033;28;20057;-63
2023/08/16 06:25:55;;;;;;;8.35;3.10;;;;;;;;;;5025950;28;20120;-64
2023/08/16 06:28:22;;;;;;;6.55;1.77;;;;;;;;;;5038757;28;20067;-62
2023/08/16 06:30:48;;;;;;;4.15;1.85;;;;;;;;;;5032834;28;20045;-62
2023/08/16 06:33:15;;;;;;;6.22;1.92;;;;;;;;;;5037731;28;20065;-63
2023/08/16 06:35:43;;;;;;;4.68;2.10;;;;;;;;;;5032690;28;20049;-63
2023/08/16 06:38:11;;;;;;;7.28;1.88;;;;;;;;;;5042937;28;20049;-63
2023/08/16 06:40:38;;;;;;;8.20;2.13;;;;;;;;;;5043000;28;20053;-63
2023/08/16 06:43:05;;;;;;;9.20;2.33;;;;;;;;;;5055919;28;20057;-64
2023/08/16 06:45:31;;;;;;;16.10;7.38;;;;;;;;;;5049116;28;20187;-65
2023/08/16 06:47:59;;;;;;;11.55;3.70;;;;;;;;;;5038672;28;20072;-65
2023/08/16 06:50:29;;;;;;;7.70;2.00;;;;;;;;;;5032267;28;20049;-67
2023/08/16 06:52:57;;;;;;;9.00;2.40;;;;;;;;;;5048299;28;20044;-64
2023/08/16 06:55:24;;;;;;;6.65;1.70;;;;;;;;;;5051560;28;20274;-64
2023/08/16 06:57:50;;;;;;;6.78;1.55;;;;;;;;;;5061301;28;20060;-65
2023/08/16 07:00:18;;;;;;;5.78;1.63;;;;;;;;;;5056524;28;20053;-63
2023/08/16 07:02:45;;;;;;;6.38;1.88;;;;;;;;;;5071736;28;20071;-67
2023/08/16 07:05:16;;;;;;;3.45;1.83;;;;;;;;;;5058609;28;20243;-66
2023/08/16 07:07:43;;;;;;;4.65;1.90;;;;;;;;;;5061280;28;20064;-67
2023/08/16 07:10:15;;;;;;;5.13;1.58;;;;;;;;;;5061065;28;20144;-66
2023/08/16 07:12:45;;;;;;;4.75;1.52;;;;;;;;;;5083904;28;20075;-65
2023/08/16 07:15:12;;;;;;;4.50;1.70;;;;;;;;;;5061308;28;20055;-64
2023/08/16 07:17:39;;;;;;;5.78;1.50;;;;;;;;;;5060838;28;20052;-68
2023/08/16 07:20:07;;;;;;;5.78;1.40;;;;;;;;;;5078993;28;20056;-66
2023/08/16 07:22:37;;;;;;;9.20;2.22;;;;;;;;;;5058133;28;20063;-68
2023/08/16 07:25:48;;;;;;;2.15;1.38;;;;;;;;;;5079875;28;20121;-63
2023/08/16 07:28:41;;;;;;;5.20;1.75;;;;;;;;;;5049531;28;20048;-64
2023/08/16 07:31:10;;;;;;;6.93;2.20;;;;;;;;;;5063117;28;20067;-67
2023/08/16 07:34:10;;;;;;;10.65;5.45;;;;;;;;;;5069115;28;20044;-66
2023/08/16 07:36:40;;;;;;;11.05;5.15;;;;;;;;;;5064084;28;20055;-67
2023/08/16 07:39:07;;;;;;;8.38;3.25;;;;;;;;;;5064300;28;20067;-66
2023/08/16 07:41:41;;;;;;;10.85;3.83;;;;;;;;;;5083350;28;20090;-65
2023/08/16 07:47:45;;;;;;;11.07;3.70;;;;;;;;;;5086165;28;20127;-66
2023/08/16 07:50:23;;;;;;;10.10;2.75;;;;;;;;;;5063564;28;20064;-68
2023/08/16 07:52:49;;;;;;;22.30;5.00;;;;;;;;;;5059182;28;20060;-66
2023/08/16 07:55:23;;;;;;;10.65;3.40;;;;;;;;;;5042694;28;20177;-67
2023/08/16 07:57:56;;;;;;;61.55;10.25;;;;;;;;;;5061315;28;20047;-65
2023/08/16 08:00:23;;;;;;;49.60;8.30;;;;;;;;;;5057601;28;20064;-65
2023/08/16 08:02:49;;;;;;;28.98;5.38;;;;;;;;;;5065544;28;20063;-64
2023/08/16 08:05:16;;;;;;;106.65;17.63;;;;;;;;;;5028764;28;20067;-64
2023/08/16 08:07:43;;;;;;;60.83;14.60;;;;;;;;;;5059234;28;20056;-64
2023/08/16 08:10:10;;;;;;;12.82;3.95;;;;;;;;;;5062445;28;20056;-67
2023/08/16 08:12:37;;;;;;;39.00;8.57;;;;;;;;;;5063870;28;20058;-67
2023/08/16 08:15:13;;;;;;;29.90;6.55;;;;;;;;;;5041547;28;20059;-66
2023/08/16 08:17:40;;;;;;;9.40;2.25;;;;;;;;;;5062588;28;20052;-66
2023/08/16 08:20:14;;;;;;;68.63;10.63;;;;;;;;;;5044537;28;20056;-66
2023/08/16 08:22:43;;;;;;;33.15;6.75;;;;;;;;;;5059425;28;22063;-67
2023/08/16 08:25:09;;;;;;;13.02;3.72;;;;;;;;;;5034506;28;20252;-65
2023/08/16 08:27:36;;;;;;;34.35;6.25;;;;;;;;;;5045740;28;20108;-65
2023/08/16 08:30:07;;;;;;;10.35;3.33;;;;;;;;;;5062586;28;20068;-65
2023/08/16 08:32:34;;;;;;;61.05;12.93;;;;;;;;;;5040245;28;20041;-65
2023/08/16 08:35:04;;;;;;;7.45;3.42;;;;;;;;;;5044226;28;20073;-66
2023/08/16 08:37:31;;;;;;;4.65;1.33;;;;;;;;;;5067294;28;20078;-69
2023/08/16 08:39:58;;;;;;;3.90;1.25;;;;;;;;;;5047211;28;20126;-78
2023/08/16 08:42:27;;;;;;;15.15;7.07;;;;;;;;;;5055805;28;20113;-73
2023/08/16 08:44:55;;;;;;;8.52;4.00;;;;;;;;;;5002970;28;20053;-67
2023/08/16 08:47:27;;;;;;;6.10;2.45;;;;;;;;;;5061101;28;20062;-68
2023/08/16 08:49:54;;;;;;;6.60;2.10;;;;;;;;;;5060531;28;20051;-68
2023/08/16 08:52:21;;;;;;;2.20;1.20;;;;;;;;;;5075833;28;20139;-68
2023/08/16 08:54:49;;;;;;;5.40;1.05;;;;;;;;;;5017464;28;20118;-71
2023/08/16 08:57:16;;;;;;;5.55;2.20;;;;;;;;;;5074108;28;20045;-70
2023/08/16 08:59:49;;;;;;;15.63;7.25;;;;;;;;;;5062194;28;20057;-69
2023/08/16 09:02:17;;;;;;;15.10;8.75;;;;;;;;;;5063398;28;20053;-69
2023/08/16 09:04:47;;;;;;;;;;;;;;;;;;5073233;28;20113;-67
2023/08/16 09:07:20;;;;;;;4.57;1.35;;;;;;;;;;5062960;28;19977;-67
2023/08/16 09:09:48;;;;;;;2.90;1.10;;;;;;;;;;5080710;28;20056;-71
2023/08/16 09:12:27;;;;;;;2.55;1.13;;;;;;;;;;5080591;28;20056;-72
2023/08/16 09:15:15;;;;;;;1.85;0.90;;;;;;;;;;5026456;28;20088;-71
2023/08/16 09:17:49;;;;;;;2.05;1.00;;;;;;;;;;5022070;28;20102;-72
2023/08/16 09:20:35;;;;;;;3.03;0.88;;;;;;;;;;5010222;28;20049;-69
2023/08/16 09:23:05;;;;;;;1.02;0.90;;;;;;;;;;5005650;28;20061;-74
2023/08/16 09:25:35;;;;;;;3.58;0.90;;;;;;;;;;5029451;28;20109;-74
2023/08/16 09:28:02;;;;;;;1.52;0.88;;;;;;;;;;5045182;28;20052;-73
2023/08/16 09:30:31;;;;;;;3.28;0.98;;;;;;;;;;5036310;28;20064;-68
2023/08/16 09:33:01;;;;;;;3.22;0.88;;;;;;;;;;5041808;28;20064;-73
2023/08/16 09:35:34;;;;;;;2.47;0.80;;;;;;;;;;5017596;28;20067;-72
2023/08/16 09:38:03;;;;;;;4.60;1.30;;;;;;;;;;5043720;28;20053;-71
2023/08/16 09:40:30;;;;;;;2.22;0.90;;;;;;;;;;5034373;28;20060;-72
2023/08/16 09:43:00;;;;;;;4.35;0.90;;;;;;;;;;5077833;28;20059;-69
2023/08/16 09:45:28;;;;;;;3.58;0.82;;;;;;;;;;5048501;28;20048;-74
2023/08/16 09:47:55;;;;;;;1.73;0.80;;;;;;;;;;5085723;28;20056;-71
2023/08/16 09:50:24;;;;;;;4.53;1.00;;;;;;;;;;5059771;28;20083;-66
2023/08/16 09:52:53;;;;;;;2.30;1.15;;;;;;;;;;5074503;28;20160;-72
2023/08/16 09:55:29;;;;;;;13.07;6.75;;;;;;;;;;5075766;28;20129;-69
2023/08/16 09:57:57;;;;;;;8.82;3.85;;;;;;;;;;5081743;28;20071;-64
2023/08/16 10:00:25;;;;;;;3.50;1.20;;;;;;;;;;5075469;28;20067;-70
2023/08/16 10:02:53;;;;;;;4.97;1.42;;;;;;;;;;5080303;28;20094;-66
2023/08/16 10:05:20;;;;;;;2.03;0.93;;;;;;;;;;5035879;28;20056;-68
2023/08/16 10:07:48;;;;;;;2.38;0.93;;;;;;;;;;5061137;28;20340;-67
2023/08/16 10:10:37;;;;;;;11.05;1.13;;;;;;;;;;5064111;28;20067;-71
2023/08/16 10:13:07;;;;;;;4.93;1.27;;;;;;;;;;5065506;28;20052;-67
2023/08/16 10:15:34;;;;;;;6.50;0.98;;;;;;;;;;5055084;28;20056;-69
2023/08/16 10:18:02;;;;;;;1.67;1.10;;;;;;;;;;5062452;28;20075;-71
2023/08/16 10:20:32;;;;;;;3.00;1.00;;;;;;;;;;5035652;28;20068;-68
2023/08/16 10:23:00;;;;;;;7.93;1.42;;;;;;;;;;5060978;28;20052;-69
2023/08/16 10:25:32;;;;;;;1.95;1.00;;;;;;;;;;5019752;28;20055;-71
2023/08/16 10:28:03;;;;;;;2.58;0.77;;;;;;;;;;5042151;28;20074;-72
2023/08/16 10:30:35;;;;;;;4.05;1.00;;;;;;;;;;5054714;28;20176;-68
2023/08/16 10:33:12;;;;;;;2.70;0.80;;;;;;;;;;5038605;28;20152;-67
2023/08/16 10:35:40;;;;;;;4.55;1.00;;;;;;;;;;5037152;28;20135;-69
2023/08/16 10:38:07;;;;;;;2.13;0.73;;;;;;;;;;5065184;28;20157;-71
2023/08/16 10:40:34;;;;;;;9.07;2.60;;;;;;;;;;5055161;28;20060;-67
2023/08/16 10:43:08;;;;;;;7.55;2.88;;;;;;;;;;5083960;28;20048;-70
2023/08/16 10:45:46;;;;;;;5.53;2.70;;;;;;;;;;5032711;28;20059;-69
2023/08/16 10:48:18;;;;;;;1.42;0.90;;;;;;;;;;5082652;28;20051;-68
2023/08/16 10:50:54;;;;;;;4.40;1.08;;;;;;;;;;5059938;28;20063;-70
2023/08/16 10:53:32;;;;;;;2.97;0.98;;;;;;;;;;5067436;28;20060;-69
2023/08/16 10:56:06;;;;;;;4.80;1.13;;;;;;;;;;5055902;28;20155;-71
2023/08/16 10:58:44;;;;;;;3.35;1.17;;;;;;;;;;5063456;28;20155;-70
2023/08/16 11:01:14;;;;;;;;;;;;;;;;;;5079235;28;20056;-67
2023/08/16 11:03:46;;;;;;;2.80;0.98;;;;;;;;;;5064432;28;20058;-70
2023/08/16 11:06:17;;;;;;;4.50;0.82;;;;;;;;;;5053427;28;20079;-67
2023/08/16 11:08:44;;;;;;;2.95;1.00;;;;;;;;;;5065483;28;20112;-68
2023/08/16 11:11:12;;;;;;;1.55;0.98;;;;;;;;;;5083925;28;20059;-67
2023/08/16 11:13:42;;;;;;;2.42;0.95;;;;;;;;;;5077981;28;20080;-68
2023/08/16 11:16:10;;;;;;;1.45;0.80;;;;;;;;;;5047248;28;20071;-67
2023/08/16 11:18:43;;;;;;;1.42;0.80;;;;;;;;;;5055983;28;20047;-70
2023/08/16 11:21:14;;;;;;;2.42;0.80;;;;;;;;;;5079195;28;20056;-66
2023/08/16 11:23:41;;;;;;;2.65;0.80;;;;;;;;;;5058813;28;20056;-69
2023/08/16 11:26:09;;;;;;;2.10;1.07;;;;;;;;;;5074119;28;20129;-69
2023/08/16 11:28:38;;;;;;;3.25;0.70;;;;;;;;;;5069669;28;20064;-69
2023/08/16 11:31:10;;;;;;;1.50;0.80;;;;;;;;;;5061906;28;20048;-66
2023/08/16 11:33:39;;;;;;;2.67;0.90;;;;;;;;;;5059597;28;20056;-65
2023/08/16 11:36:08;;;;;;;2.58;0.88;;;;;;;;;;5049693;28;20090;-65
2023/08/16 11:38:35;;;;;;;4.22;1.25;;;;;;;;;;5050391;28;20105;-66
2023/08/16 11:41:02;;;;;;;1.50;0.80;;;;;;;;;;5061326;28;20060;-66
2023/08/16 11:43:30;;;;;;;4.35;1.08;;;;;;;;;;5064681;28;20076;-65
2023/08/16 11:45:59;;;;;;;2.22;0.98;;;;;;;;;;5065550;28;20059;-66
2023/08/16 11:48:44;;;;;;;8.30;1.20;;;;;;;;;;5078402;28;20047;-68
2023/08/16 11:51:11;;;;;;;2.10;0.95;;;;;;;;;;5061152;28;20078;-66
2023/08/16 11:53:38;;;;;;;3.22;1.20;;;;;;;;;;5059855;28;20058;-65
2023/08/16 11:56:07;;;;;;;2.40;0.80;;;;;;;;;;5057883;28;20086;-66
2023/08/16 11:58:43;;;;;;;1.98;0.90;;;;;;;;;;5052446;28;20075;-66
2023/08/16 12:01:12;;;;;;;4.50;0.98;;;;;;;;;;5059597;28;20056;-67
2023/08/16 12:03:40;;;;;;;3.75;1.15;;;;;;;;;;5057424;28;20057;-66
2023/08/16 12:06:08;;;;;;;2.63;1.00;;;;;;;;;;5053521;28;20048;-67
2023/08/16 12:08:35;;;;;;;2.83;1.00;;;;;;;;;;5049932;28;20048;-66
2023/08/16 12:11:03;;;;;;;4.72;1.00;;;;;;;;;;5060788;28;20106;-66
2023/08/16 12:13:30;;;;;;;3.33;0.90;;;;;;;;;;5059960;28;20062;-68
2023/08/16 12:15:57;;;;;;;1.85;1.10;;;;;;;;;;5022320;28;20060;-67
2023/08/16 12:18:24;;;;;;;5.45;1.13;;;;;;;;;;5036781;28;20060;-66
2023/08/16 12:20:59;;;;;;;1.80;0.80;;;;;;;;;;5041562;28;20061;-65
2023/08/16 12:23:31;;;;;;;4.03;1.08;;;;;;;;;;5044491;28;20057;-67
2023/08/16 12:25:58;;;;;;;1.42;1.00;;;;;;;;;;5030360;28;20048;-65
2023/08/16 12:28:25;;;;;;;2.05;1.00;;;;;;;;;;5040102;28;20053;-66
2023/08/16 12:30:51;;;;;;;6.43;0.90;;;;;;;;;;5049568;28;20064;-65
2023/08/16 12:33:20;;;;;;;2.50;0.82;;;;;;;;;;5064887;28;20075;-67
2023/08/16 12:35:47;;;;;;;0.98;0.80;;;;;;;;;;5032539;28;20087;-68
2023/08/16 12:38:16;;;;;;;5.93;0.90;;;;;;;;;;5067151;28;20060;-66
2023/08/16 12:40:44;;;;;;;2.10;0.73;;;;;;;;;;5056297;28;20048;-66
2023/08/16 12:43:11;;;;;;;;;;;;;;;;;;5059850;28;20057;-65
2023/08/16 12:45:41;;;;;;;2.65;0.80;;;;;;;;;;5045745;28;19927;-67
2023/08/16 12:48:07;;;;;;;2.90;1.00;;;;;;;;;;5059960;28;20056;-64
2023/08/16 12:50:34;;;;;;;2.20;0.98;;;;;;;;;;5051695;28;20147;-66
2023/08/16 12:53:00;;;;;;;4.78;0.88;;;;;;;;;;5062926;28;20107;-67
2023/08/16 12:55:29;;;;;;;1.50;0.70;;;;;;;;;;5054534;28;20106;-65
2023/08/16 12:57:56;;;;;;;1.05;0.70;;;;;;;;;;5061052;28;20052;-66
2023/08/16 13:00:23;;;;;;;3.25;0.90;;;;;;;;;;5052561;28;20052;-66
2023/08/16 13:02:49;;;;;;;2.25;0.70;;;;;;;;;;5077460;28;20064;-66
2023/08/16 13:05:17;;;;;;;2.08;0.80;;;;;;;;;;5068328;28;20127;-66
2023/08/16 13:07:44;;;;;;;1.45;0.77;;;;;;;;;;5081576;28;20086;-67
2023/08/16 13:10:11;;;;;;;1.50;0.80;;;;;;;;;;5085228;28;20140;-65
2023/08/16 13:12:40;;;;;;;3.60;0.87;;;;;;;;;;5057217;28;21035;-67
2023/08/16 13:15:07;;;;;;;2.55;0.70;;;;;;;;;;5058225;28;22751;-66
2023/08/16 13:17:34;;;;;;;2.00;0.70;;;;;;;;;;5062574;28;20059;-66
2023/08/16 13:20:23;;;;;;;2.08;0.90;;;;;;;;;;5062242;28;20059;-65
2023/08/16 13:22:49;;;;;;;1.77;0.82;;;;;;;;;;5057510;28;20062;-65
2023/08/16 13:25:18;;;;;;;2.88;0.80;;;;;;;;;;5029414;28;20056;-65
2023/08/16 13:27:46;;;;;;;3.53;0.80;;;;;;;;;;5062331;28;20157;-65
2023/08/16 13:30:16;;;;;;;;;;;;;;;;;;5081577;28;20064;-64
2023/08/16 13:32:42;;;;;;;1.30;0.77;;;;;;;;;;5081985;28;19927;-66
2023/08/16 13:35:09;;;;;;;2.53;0.90;;;;;;;;;;5077091;28;20060;-65
2023/08/16 13:37:36;;;;;;;4.25;0.80;;;;;;;;;;5081708;28;20218;-67
2023/08/16 13:40:03;;;;;;;2.72;0.70;;;;;;;;;;5081596;28;20222;-65
2023/08/16 13:42:30;;;;;;;1.55;0.80;;;;;;;;;;5100719;28;20055;-65
2023/08/16 13:44:58;;;;;;;5.28;1.17;;;;;;;;;;5067962;28;20059;-65
2023/08/16 13:47:24;;;;;;;;;;;;;;;;;;5075489;28;20047;-64
2023/08/16 13:49:51;;;;;;;2.05;0.90;;;;;;;;;;5079847;28;19965;-64
2023/08/16 13:52:20;;;;;;;2.05;0.75;;;;;;;;;;5080283;28;20113;-65
2023/08/16 13:54:46;;;;;;;2.80;1.13;;;;;;;;;;5059336;28;20068;-67
2023/08/16 13:57:13;;;;;;;5.25;1.00;;;;;;;;;;5061876;28;20109;-65
2023/08/16 13:59:41;;;;;;;2.28;1.05;;;;;;;;;;5080184;28;20075;-66
2023/08/16 14:02:09;;;;;;;;;;;;;;;;;;5080183;28;20062;-63
2023/08/16 14:04:36;;;;;;;2.38;1.00;;;;;;;;;;5076468;28;19963;-65
2023/08/16 14:07:03;;;;;;;1.25;0.80;;;;;;;;;;5076716;28;20059;-64
2023/08/16 14:09:29;;;;;;;2.15;1.10;;;;;;;;;;5080344;28;20063;-65
2023/08/16 14:11:57;;;;;;;1.77;0.90;;;;;;;;;;5083981;28;20127;-66
2023/08/16 14:14:24;;;;;;;3.25;1.00;;;;;;;;;;5053278;28;20083;-64
2023/08/16 14:16:52;;;;;;;1.67;0.93;;;;;;;;;;5060338;28;20063;-65
2023/08/16 14:19:23;;;;;;;1.42;1.10;;;;;;;;;;5058451;28;20044;-65
2023/08/16 14:21:49;;;;;;;4.50;1.00;;;;;;;;;;5076349;28;20060;-65
2023/08/16 14:24:16;;;;;;;2.15;1.00;;;;;;;;;;5059114;28;20059;-66
2023/08/16 14:26:43;;;;;;;2.47;1.00;;;;;;;;;;5072463;28;20070;-66
2023/08/16 14:29:11;;;;;;;1.88;0.80;;;;;;;;;;5077079;28;20067;-67
2023/08/16 14:31:37;;;;;;;1.60;0.88;;;;;;;;;;5079202;28;20113;-65
2023/08/16 14:34:04;;;;;;;1.10;0.98;;;;;;;;;;5060662;28;20140;-64
2023/08/16 14:36:32;;;;;;;5.05;0.88;;;;;;;;;;5073377;28;20081;-64
2023/08/16 14:38:59;;;;;;;4.65;1.00;;;;;;;;;;5079404;28;20111;-65
2023/08/16 14:41:26;;;;;;;2.85;1.17;;;;;;;;;;5063311;28;20056;-65
2023/08/16 14:43:53;;;;;;;3.05;1.02;;;;;;;;;;5040664;28;20129;-65
2023/08/16 14:46:21;;;;;;;2.92;1.05;;;;;;;;;;5027753;28;20133;-65
2023/08/16 14:48:48;;;;;;;3.65;1.25;;;;;;;;;;5058477;28;20069;-64
2023/08/16 14:51:17;;;;;;;3.00;1.20;;;;;;;;;;5040483;28;20053;-65
2023/08/16 14:53:45;;;;;;;1.95;0.90;;;;;;;;;;5043824;28;20151;-63
2023/08/16 14:56:15;;;;;;;;;;;;;;;;;;5043925;28;20073;-64